sensor_id;sensor_type;location;lat;lon;timestamp;P1;durP1;ratioP1;P2;durP2;ratioP2
23866;SDS011;12114;53.404;-1.502;2023-05-10T00:00:14;13.82;;;2.85;;
23866;SDS011;12114;53.404;-1.502;2023-05-10T00:02:59;11.75;;;2.90;;
23866;SDS011;12114;53.404;-1.502;2023-05-10T00:05:43;11.80;;;3.22;;
23866;SDS011;12114;53.404;-1.502;2023-05-10T00:08:26;9.05;;;2.58;;
23866;SDS011;12114;53.404;-1.502;2023-05-10T00:11:10;11.30;;;2.63;;
23866;SDS011;12114;53.404;-1.502;2023-05-10T00:13:54;7.30;;;2.45;;
23866;SDS011;12114;53.404;-1.502;2023-05-10T00:16:38;16.42;;;2.58;;
23866;SDS011;12114;53.404;-1.502;2023-05-10T00:19:22;11.98;;;2.67;;
23866;SDS011;12114;53.404;-1.502;2023-05-10T00:22:06;9.60;;;2.25;;
23866;SDS011;12114;53.404;-1.502;2023-05-10T00:24:50;9.25;;;2.38;;
23866;SDS011;12114;53.404;-1.502;2023-05-10T00:27:34;6.95;;;2.25;;
23866;SDS011;12114;53.404;-1.502;2023-05-10T00:30:18;6.38;;;1.80;;
23866;SDS011;12114;53.404;-1.502;2023-05-10T00:33:02;6.45;;;1.88;;
23866;SDS011;12114;53.404;-1.502;2023-05-10T00:35:46;6.65;;;1.98;;
23866;SDS011;12114;53.404;-1.502;2023-05-10T00:38:30;7.10;;;2.10;;
23866;SDS011;12114;53.404;-1.502;2023-05-10T00:41:14;7.32;;;1.75;;
23866;SDS011;12114;53.404;-1.502;2023-05-10T00:43:59;9.60;;;2.22;;
23866;SDS011;12114;53.404;-1.502;2023-05-10T00:46:44;9.13;;;2.35;;
23866;SDS011;12114;53.404;-1.502;2023-05-10T00:49:29;9.57;;;2.23;;
23866;SDS011;12114;53.404;-1.502;2023-05-10T00:52:13;11.95;;;2.45;;
23866;SDS011;12114;53.404;-1.502;2023-05-10T00:54:58;8.95;;;2.40;;
23866;SDS011;12114;53.404;-1.502;2023-05-10T00:57:42;11.35;;;2.55;;
23866;SDS011;12114;53.404;-1.502;2023-05-10T01:00:27;8.03;;;1.87;;
23866;SDS011;12114;53.404;-1.502;2023-05-10T01:03:11;10.00;;;2.80;;
23866;SDS011;12114;53.404;-1.502;2023-05-10T01:05:55;8.88;;;2.63;;
23866;SDS011;12114;53.404;-1.502;2023-05-10T01:08:39;10.90;;;2.88;;
23866;SDS011;12114;53.404;-1.502;2023-05-10T01:11:24;10.13;;;2.85;;
23866;SDS011;12114;53.404;-1.502;2023-05-10T01:14:08;8.50;;;2.72;;
23866;SDS011;12114;53.404;-1.502;2023-05-10T01:16:53;14.43;;;3.45;;
23866;SDS011;12114;53.404;-1.502;2023-05-10T01:19:37;12.32;;;3.17;;
23866;SDS011;12114;53.404;-1.502;2023-05-10T01:32:14;14.90;;;4.03;;
23866;SDS011;12114;53.404;-1.502;2023-05-10T01:35:10;9.05;;;3.47;;
23866;SDS011;12114;53.404;-1.502;2023-05-10T01:38:07;15.35;;;4.22;;
23866;SDS011;12114;53.404;-1.502;2023-05-10T01:41:04;13.13;;;3.50;;
23866;SDS011;12114;53.404;-1.502;2023-05-10T01:44:15;11.07;;;3.30;;
23866;SDS011;12114;53.404;-1.502;2023-05-10T01:47:05;17.75;;;4.50;;
23866;SDS011;12114;53.404;-1.502;2023-05-10T01:49:51;21.13;;;4.63;;
23866;SDS011;12114;53.404;-1.502;2023-05-10T01:52:38;21.52;;;4.28;;
23866;SDS011;12114;53.404;-1.502;2023-05-10T01:55:28;15.73;;;3.72;;
23866;SDS011;12114;53.404;-1.502;2023-05-10T01:58:23;12.20;;;3.35;;
23866;SDS011;12114;53.404;-1.502;2023-05-10T02:01:11;13.88;;;3.70;;
23866;SDS011;12114;53.404;-1.502;2023-05-10T02:03:56;11.60;;;3.17;;
23866;SDS011;12114;53.404;-1.502;2023-05-10T02:06:42;12.63;;;2.78;;
23866;SDS011;12114;53.404;-1.502;2023-05-10T02:12:13;12.73;;;2.75;;
23866;SDS011;12114;53.404;-1.502;2023-05-10T02:17:44;18.33;;;3.53;;
23866;SDS011;12114;53.404;-1.502;2023-05-10T02:20:30;13.20;;;2.97;;
23866;SDS011;12114;53.404;-1.502;2023-05-10T02:23:15;14.35;;;2.67;;
23866;SDS011;12114;53.404;-1.502;2023-05-10T02:26:01;11.40;;;3.25;;
23866;SDS011;12114;53.404;-1.502;2023-05-10T02:31:31;11.80;;;3.15;;
23866;SDS011;12114;53.404;-1.502;2023-05-10T02:34:17;11.45;;;2.90;;
23866;SDS011;12114;53.404;-1.502;2023-05-10T02:37:01;14.82;;;3.85;;
23866;SDS011;12114;53.404;-1.502;2023-05-10T02:39:47;14.95;;;3.65;;
23866;SDS011;12114;53.404;-1.502;2023-05-10T02:45:19;9.47;;;2.97;;
23866;SDS011;12114;53.404;-1.502;2023-05-10T02:48:05;18.48;;;4.43;;
23866;SDS011;12114;53.404;-1.502;2023-05-10T02:50:50;11.73;;;3.45;;
23866;SDS011;12114;53.404;-1.502;2023-05-10T02:53:37;16.80;;;4.22;;
23866;SDS011;12114;53.404;-1.502;2023-05-10T02:56:34;14.93;;;3.35;;
23866;SDS011;12114;53.404;-1.502;2023-05-10T02:59:19;11.80;;;3.83;;
23866;SDS011;12114;53.404;-1.502;2023-05-10T03:02:03;17.27;;;3.85;;
23866;SDS011;12114;53.404;-1.502;2023-05-10T03:04:48;15.95;;;3.85;;
23866;SDS011;12114;53.404;-1.502;2023-05-10T03:07:32;11.15;;;4.13;;
23866;SDS011;12114;53.404;-1.502;2023-05-10T03:10:17;10.87;;;4.37;;
23866;SDS011;12114;53.404;-1.502;2023-05-10T03:16:41;12.55;;;4.13;;
23866;SDS011;12114;53.404;-1.502;2023-05-10T03:22:38;17.45;;;4.35;;
23866;SDS011;12114;53.404;-1.502;2023-05-10T03:25:31;12.60;;;4.10;;
23866;SDS011;12114;53.404;-1.502;2023-05-10T03:28:16;19.50;;;4.57;;
23866;SDS011;12114;53.404;-1.502;2023-05-10T03:33:48;18.53;;;4.93;;
23866;SDS011;12114;53.404;-1.502;2023-05-10T03:36:32;11.17;;;3.83;;
23866;SDS011;12114;53.404;-1.502;2023-05-10T03:39:16;16.77;;;5.43;;
23866;SDS011;12114;53.404;-1.502;2023-05-10T03:42:00;13.57;;;5.13;;
23866;SDS011;12114;53.404;-1.502;2023-05-10T03:44:44;15.85;;;4.38;;
23866;SDS011;12114;53.404;-1.502;2023-05-10T03:47:28;14.82;;;4.55;;
23866;SDS011;12114;53.404;-1.502;2023-05-10T03:50:13;17.88;;;5.05;;
23866;SDS011;12114;53.404;-1.502;2023-05-10T03:52:57;15.13;;;4.60;;
23866;SDS011;12114;53.404;-1.502;2023-05-10T03:55:41;16.13;;;3.92;;
23866;SDS011;12114;53.404;-1.502;2023-05-10T03:58:25;12.73;;;4.78;;
23866;SDS011;12114;53.404;-1.502;2023-05-10T04:01:09;22.75;;;5.75;;
23866;SDS011;12114;53.404;-1.502;2023-05-10T04:03:53;11.52;;;4.32;;
23866;SDS011;12114;53.404;-1.502;2023-05-10T04:06:37;14.55;;;4.65;;
23866;SDS011;12114;53.404;-1.502;2023-05-10T04:09:21;14.68;;;4.80;;
23866;SDS011;12114;53.404;-1.502;2023-05-10T04:12:06;13.57;;;4.70;;
23866;SDS011;12114;53.404;-1.502;2023-05-10T04:14:50;12.98;;;4.78;;
23866;SDS011;12114;53.404;-1.502;2023-05-10T04:17:34;14.65;;;5.28;;
23866;SDS011;12114;53.404;-1.502;2023-05-10T04:20:18;11.30;;;4.13;;
23866;SDS011;12114;53.404;-1.502;2023-05-10T04:23:02;14.13;;;4.60;;
23866;SDS011;12114;53.404;-1.502;2023-05-10T04:25:46;12.55;;;4.75;;
23866;SDS011;12114;53.404;-1.502;2023-05-10T04:28:30;15.25;;;4.90;;
23866;SDS011;12114;53.404;-1.502;2023-05-10T04:31:14;13.55;;;5.18;;
23866;SDS011;12114;53.404;-1.502;2023-05-10T04:33:58;14.98;;;4.95;;
23866;SDS011;12114;53.404;-1.502;2023-05-10T04:36:42;13.35;;;4.78;;
23866;SDS011;12114;53.404;-1.502;2023-05-10T04:39:26;17.92;;;5.63;;
23866;SDS011;12114;53.404;-1.502;2023-05-10T04:42:10;16.15;;;5.97;;
23866;SDS011;12114;53.404;-1.502;2023-05-10T04:44:55;19.05;;;6.03;;
23866;SDS011;12114;53.404;-1.502;2023-05-10T04:47:38;15.43;;;6.18;;
23866;SDS011;12114;53.404;-1.502;2023-05-10T04:50:23;17.27;;;5.93;;
23866;SDS011;12114;53.404;-1.502;2023-05-10T04:53:07;17.92;;;6.28;;
23866;SDS011;12114;53.404;-1.502;2023-05-10T04:55:50;16.92;;;6.32;;
23866;SDS011;12114;53.404;-1.502;2023-05-10T04:58:34;18.95;;;6.75;;
23866;SDS011;12114;53.404;-1.502;2023-05-10T05:01:18;18.20;;;6.28;;
23866;SDS011;12114;53.404;-1.502;2023-05-10T05:04:02;15.50;;;7.03;;
23866;SDS011;12114;53.404;-1.502;2023-05-10T05:06:47;21.40;;;7.00;;
23866;SDS011;12114;53.404;-1.502;2023-05-10T05:09:31;20.25;;;7.22;;
23866;SDS011;12114;53.404;-1.502;2023-05-10T05:12:15;21.05;;;7.03;;
23866;SDS011;12114;53.404;-1.502;2023-05-10T05:14:59;15.30;;;6.70;;
23866;SDS011;12114;53.404;-1.502;2023-05-10T05:17:43;20.10;;;7.53;;
23866;SDS011;12114;53.404;-1.502;2023-05-10T05:20:27;16.80;;;7.10;;
23866;SDS011;12114;53.404;-1.502;2023-05-10T05:23:11;17.23;;;7.55;;
23866;SDS011;12114;53.404;-1.502;2023-05-10T05:25:55;15.30;;;7.47;;
23866;SDS011;12114;53.404;-1.502;2023-05-10T05:28:40;16.88;;;7.90;;
23866;SDS011;12114;53.404;-1.502;2023-05-10T05:31:24;20.08;;;8.02;;
23866;SDS011;12114;53.404;-1.502;2023-05-10T05:34:08;19.23;;;7.53;;
23866;SDS011;12114;53.404;-1.502;2023-05-10T05:36:52;18.23;;;6.95;;
23866;SDS011;12114;53.404;-1.502;2023-05-10T05:39:36;22.17;;;7.25;;
23866;SDS011;12114;53.404;-1.502;2023-05-10T05:42:21;16.95;;;6.65;;
23866;SDS011;12114;53.404;-1.502;2023-05-10T05:45:05;14.23;;;6.03;;
23866;SDS011;12114;53.404;-1.502;2023-05-10T05:47:49;14.95;;;5.78;;
23866;SDS011;12114;53.404;-1.502;2023-05-10T05:50:33;13.00;;;5.75;;
23866;SDS011;12114;53.404;-1.502;2023-05-10T05:53:17;20.25;;;7.20;;
23866;SDS011;12114;53.404;-1.502;2023-05-10T05:56:01;16.33;;;6.45;;
23866;SDS011;12114;53.404;-1.502;2023-05-10T05:58:46;16.60;;;5.75;;
23866;SDS011;12114;53.404;-1.502;2023-05-10T06:01:30;16.10;;;5.85;;
23866;SDS011;12114;53.404;-1.502;2023-05-10T06:04:15;11.80;;;5.63;;
23866;SDS011;12114;53.404;-1.502;2023-05-10T06:06:59;12.75;;;5.57;;
23866;SDS011;12114;53.404;-1.502;2023-05-10T06:09:43;14.82;;;5.65;;
23866;SDS011;12114;53.404;-1.502;2023-05-10T06:12:28;19.52;;;6.22;;
23866;SDS011;12114;53.404;-1.502;2023-05-10T06:15:12;13.40;;;5.63;;
23866;SDS011;12114;53.404;-1.502;2023-05-10T06:17:56;13.90;;;5.47;;
23866;SDS011;12114;53.404;-1.502;2023-05-10T06:20:40;13.10;;;5.78;;
23866;SDS011;12114;53.404;-1.502;2023-05-10T06:23:25;15.02;;;5.63;;
23866;SDS011;12114;53.404;-1.502;2023-05-10T06:26:10;18.15;;;6.00;;
23866;SDS011;12114;53.404;-1.502;2023-05-10T06:28:54;11.57;;;4.93;;
23866;SDS011;12114;53.404;-1.502;2023-05-10T06:31:38;11.88;;;5.35;;
23866;SDS011;12114;53.404;-1.502;2023-05-10T06:34:23;13.18;;;4.97;;
23866;SDS011;12114;53.404;-1.502;2023-05-10T06:37:07;9.82;;;4.72;;
23866;SDS011;12114;53.404;-1.502;2023-05-10T06:39:50;12.98;;;4.88;;
23866;SDS011;12114;53.404;-1.502;2023-05-10T06:42:35;11.90;;;5.03;;
23866;SDS011;12114;53.404;-1.502;2023-05-10T06:45:18;10.80;;;4.97;;
23866;SDS011;12114;53.404;-1.502;2023-05-10T06:48:03;13.73;;;4.95;;
23866;SDS011;12114;53.404;-1.502;2023-05-10T06:50:47;11.10;;;4.90;;
23866;SDS011;12114;53.404;-1.502;2023-05-10T06:53:31;8.70;;;3.85;;
23866;SDS011;12114;53.404;-1.502;2023-05-10T06:56:15;9.52;;;3.90;;
23866;SDS011;12114;53.404;-1.502;2023-05-10T06:58:59;12.52;;;3.97;;
23866;SDS011;12114;53.404;-1.502;2023-05-10T07:01:43;9.57;;;3.30;;
23866;SDS011;12114;53.404;-1.502;2023-05-10T07:04:27;10.60;;;3.67;;
23866;SDS011;12114;53.404;-1.502;2023-05-10T07:07:11;7.97;;;3.72;;
23866;SDS011;12114;53.404;-1.502;2023-05-10T07:09:55;11.52;;;3.90;;
23866;SDS011;12114;53.404;-1.502;2023-05-10T07:15:25;12.35;;;3.83;;
23866;SDS011;12114;53.404;-1.502;2023-05-10T07:18:09;8.55;;;3.67;;
23866;SDS011;12114;53.404;-1.502;2023-05-10T07:20:53;9.70;;;3.83;;
23866;SDS011;12114;53.404;-1.502;2023-05-10T07:23:37;11.05;;;3.13;;
23866;SDS011;12114;53.404;-1.502;2023-05-10T07:26:21;9.80;;;3.85;;
23866;SDS011;12114;53.404;-1.502;2023-05-10T07:29:05;8.88;;;3.15;;
23866;SDS011;12114;53.404;-1.502;2023-05-10T07:31:49;8.68;;;3.33;;
23866;SDS011;12114;53.404;-1.502;2023-05-10T07:34:33;11.25;;;3.38;;
23866;SDS011;12114;53.404;-1.502;2023-05-10T07:37:17;13.57;;;3.30;;
23866;SDS011;12114;53.404;-1.502;2023-05-10T07:40:02;11.02;;;3.67;;
23866;SDS011;12114;53.404;-1.502;2023-05-10T07:42:46;7.95;;;3.10;;
23866;SDS011;12114;53.404;-1.502;2023-05-10T07:45:30;10.07;;;3.17;;
23866;SDS011;12114;53.404;-1.502;2023-05-10T07:48:14;8.75;;;2.75;;
23866;SDS011;12114;53.404;-1.502;2023-05-10T07:50:58;10.88;;;2.33;;
23866;SDS011;12114;53.404;-1.502;2023-05-10T07:53:42;6.28;;;2.30;;
23866;SDS011;12114;53.404;-1.502;2023-05-10T07:56:27;8.43;;;1.98;;
23866;SDS011;12114;53.404;-1.502;2023-05-10T07:59:16;4.18;;;1.73;;
23866;SDS011;12114;53.404;-1.502;2023-05-10T08:02:01;5.28;;;2.15;;
23866;SDS011;12114;53.404;-1.502;2023-05-10T08:04:45;6.60;;;2.17;;
23866;SDS011;12114;53.404;-1.502;2023-05-10T08:07:29;7.75;;;2.55;;
23866;SDS011;12114;53.404;-1.502;2023-05-10T08:10:13;7.43;;;2.42;;
23866;SDS011;12114;53.404;-1.502;2023-05-10T08:12:57;11.82;;;3.35;;
23866;SDS011;12114;53.404;-1.502;2023-05-10T08:15:42;7.57;;;3.00;;
23866;SDS011;12114;53.404;-1.502;2023-05-10T08:18:26;6.75;;;2.63;;
23866;SDS011;12114;53.404;-1.502;2023-05-10T08:21:10;11.00;;;3.22;;
23866;SDS011;12114;53.404;-1.502;2023-05-10T08:23:54;7.00;;;2.50;;
23866;SDS011;12114;53.404;-1.502;2023-05-10T08:26:38;8.00;;;2.45;;
23866;SDS011;12114;53.404;-1.502;2023-05-10T08:29:23;7.90;;;2.42;;
23866;SDS011;12114;53.404;-1.502;2023-05-10T08:32:07;8.73;;;2.53;;
23866;SDS011;12114;53.404;-1.502;2023-05-10T08:34:51;6.03;;;2.05;;
23866;SDS011;12114;53.404;-1.502;2023-05-10T08:37:35;8.90;;;2.03;;
23866;SDS011;12114;53.404;-1.502;2023-05-10T08:40:19;6.80;;;2.05;;
23866;SDS011;12114;53.404;-1.502;2023-05-10T08:43:04;8.13;;;2.45;;
23866;SDS011;12114;53.404;-1.502;2023-05-10T08:45:53;6.50;;;2.10;;
23866;SDS011;12114;53.404;-1.502;2023-05-10T08:48:38;6.05;;;2.40;;
23866;SDS011;12114;53.404;-1.502;2023-05-10T08:51:25;7.90;;;2.90;;
23866;SDS011;12114;53.404;-1.502;2023-05-10T08:54:10;7.35;;;1.58;;
23866;SDS011;12114;53.404;-1.502;2023-05-10T08:56:54;6.22;;;1.30;;
23866;SDS011;12114;53.404;-1.502;2023-05-10T08:59:39;6.97;;;1.65;;
23866;SDS011;12114;53.404;-1.502;2023-05-10T09:02:23;4.82;;;1.25;;
23866;SDS011;12114;53.404;-1.502;2023-05-10T09:05:08;6.00;;;1.50;;
23866;SDS011;12114;53.404;-1.502;2023-05-10T09:07:53;14.73;;;2.38;;
23866;SDS011;12114;53.404;-1.502;2023-05-10T09:10:38;6.28;;;1.45;;
23866;SDS011;12114;53.404;-1.502;2023-05-10T09:13:23;3.45;;;1.30;;
23866;SDS011;12114;53.404;-1.502;2023-05-10T09:16:08;4.00;;;1.45;;
23866;SDS011;12114;53.404;-1.502;2023-05-10T09:18:52;5.88;;;1.33;;
23866;SDS011;12114;53.404;-1.502;2023-05-10T09:21:36;4.03;;;1.25;;
23866;SDS011;12114;53.404;-1.502;2023-05-10T09:24:28;5.25;;;1.23;;
23866;SDS011;12114;53.404;-1.502;2023-05-10T09:27:13;6.22;;;1.55;;
23866;SDS011;12114;53.404;-1.502;2023-05-10T09:29:57;5.68;;;1.38;;
23866;SDS011;12114;53.404;-1.502;2023-05-10T09:32:42;6.32;;;2.00;;
23866;SDS011;12114;53.404;-1.502;2023-05-10T09:35:28;6.18;;;2.28;;
23866;SDS011;12114;53.404;-1.502;2023-05-10T09:40:57;8.23;;;2.00;;
23866;SDS011;12114;53.404;-1.502;2023-05-10T09:43:41;4.70;;;1.65;;
23866;SDS011;12114;53.404;-1.502;2023-05-10T09:46:25;4.30;;;1.85;;
23866;SDS011;12114;53.404;-1.502;2023-05-10T09:49:11;3.05;;;1.48;;
23866;SDS011;12114;53.404;-1.502;2023-05-10T09:54:52;4.00;;;1.70;;
23866;SDS011;12114;53.404;-1.502;2023-05-10T09:57:37;7.13;;;2.13;;
23866;SDS011;12114;53.404;-1.502;2023-05-10T10:00:22;3.13;;;1.40;;
23866;SDS011;12114;53.404;-1.502;2023-05-10T10:03:12;2.75;;;1.42;;
23866;SDS011;12114;53.404;-1.502;2023-05-10T10:06:00;3.05;;;1.35;;
23866;SDS011;12114;53.404;-1.502;2023-05-10T10:08:44;2.60;;;1.30;;
23866;SDS011;12114;53.404;-1.502;2023-05-10T10:11:28;2.83;;;1.25;;
23866;SDS011;12114;53.404;-1.502;2023-05-10T10:14:13;7.32;;;1.77;;
23866;SDS011;12114;53.404;-1.502;2023-05-10T10:16:57;2.33;;;1.05;;
23866;SDS011;12114;53.404;-1.502;2023-05-10T10:19:44;2.78;;;1.30;;
23866;SDS011;12114;53.404;-1.502;2023-05-10T10:22:29;1.77;;;1.07;;
23866;SDS011;12114;53.404;-1.502;2023-05-10T10:25:14;3.30;;;1.10;;
23866;SDS011;12114;53.404;-1.502;2023-05-10T10:28:07;2.78;;;0.80;;
23866;SDS011;12114;53.404;-1.502;2023-05-10T10:30:53;1.73;;;0.80;;
23866;SDS011;12114;53.404;-1.502;2023-05-10T10:33:47;5.95;;;1.42;;
23866;SDS011;12114;53.404;-1.502;2023-05-10T10:36:53;7.05;;;2.45;;
23866;SDS011;12114;53.404;-1.502;2023-05-10T10:39:40;3.70;;;1.83;;
23866;SDS011;12114;53.404;-1.502;2023-05-10T10:45:28;3.95;;;1.80;;
23866;SDS011;12114;53.404;-1.502;2023-05-10T10:48:22;2.75;;;1.70;;
23866;SDS011;12114;53.404;-1.502;2023-05-10T10:51:07;4.40;;;1.90;;
23866;SDS011;12114;53.404;-1.502;2023-05-10T10:53:51;2.72;;;1.45;;
23866;SDS011;12114;53.404;-1.502;2023-05-10T10:56:34;3.78;;;1.55;;
23866;SDS011;12114;53.404;-1.502;2023-05-10T10:59:26;3.33;;;1.65;;
23866;SDS011;12114;53.404;-1.502;2023-05-10T11:08:18;5.10;;;1.45;;
23866;SDS011;12114;53.404;-1.502;2023-05-10T11:11:09;3.58;;;1.40;;
23866;SDS011;12114;53.404;-1.502;2023-05-10T11:14:02;3.60;;;1.65;;
23866;SDS011;12114;53.404;-1.502;2023-05-10T11:16:48;3.47;;;1.90;;
23866;SDS011;12114;53.404;-1.502;2023-05-10T11:19:32;5.13;;;2.25;;
23866;SDS011;12114;53.404;-1.502;2023-05-10T11:22:16;4.15;;;1.92;;
23866;SDS011;12114;53.404;-1.502;2023-05-10T11:25:00;3.40;;;1.80;;
23866;SDS011;12114;53.404;-1.502;2023-05-10T11:27:47;3.00;;;1.30;;
23866;SDS011;12114;53.404;-1.502;2023-05-10T11:30:32;1.90;;;1.08;;
23866;SDS011;12114;53.404;-1.502;2023-05-10T11:33:16;2.60;;;1.00;;
23866;SDS011;12114;53.404;-1.502;2023-05-10T11:36:01;0.95;;;0.60;;
23866;SDS011;12114;53.404;-1.502;2023-05-10T11:38:45;1.63;;;0.70;;
23866;SDS011;12114;53.404;-1.502;2023-05-10T11:41:30;1.17;;;0.82;;
23866;SDS011;12114;53.404;-1.502;2023-05-10T11:44:14;1.80;;;0.90;;
23866;SDS011;12114;53.404;-1.502;2023-05-10T11:47:01;3.20;;;1.10;;
23866;SDS011;12114;53.404;-1.502;2023-05-10T11:49:46;2.33;;;1.10;;
23866;SDS011;12114;53.404;-1.502;2023-05-10T11:52:35;1.80;;;0.80;;
23866;SDS011;12114;53.404;-1.502;2023-05-10T11:55:21;3.00;;;1.10;;
23866;SDS011;12114;53.404;-1.502;2023-05-10T11:58:05;2.80;;;1.25;;
23866;SDS011;12114;53.404;-1.502;2023-05-10T12:00:49;1.92;;;1.10;;
23866;SDS011;12114;53.404;-1.502;2023-05-10T12:03:33;1.92;;;1.48;;
23866;SDS011;12114;53.404;-1.502;2023-05-10T12:06:18;2.35;;;1.90;;
23866;SDS011;12114;53.404;-1.502;2023-05-10T12:09:06;2.70;;;0.80;;
23866;SDS011;12114;53.404;-1.502;2023-05-10T12:11:54;1.65;;;0.63;;
23866;SDS011;12114;53.404;-1.502;2023-05-10T12:14:40;2.28;;;1.00;;
23866;SDS011;12114;53.404;-1.502;2023-05-10T12:17:27;0.80;;;0.60;;
23866;SDS011;12114;53.404;-1.502;2023-05-10T12:20:13;1.08;;;0.47;;
23866;SDS011;12114;53.404;-1.502;2023-05-10T12:23:04;0.85;;;0.40;;
23866;SDS011;12114;53.404;-1.502;2023-05-10T12:25:49;2.08;;;0.40;;
23866;SDS011;12114;53.404;-1.502;2023-05-10T12:28:33;1.88;;;0.35;;
23866;SDS011;12114;53.404;-1.502;2023-05-10T12:31:17;0.47;;;0.20;;
23866;SDS011;12114;53.404;-1.502;2023-05-10T12:34:01;0.40;;;0.30;;
23866;SDS011;12114;53.404;-1.502;2023-05-10T12:36:44;0.47;;;0.20;;
23866;SDS011;12114;53.404;-1.502;2023-05-10T12:39:38;2.22;;;0.32;;
23866;SDS011;12114;53.404;-1.502;2023-05-10T12:42:24;1.33;;;0.47;;
23866;SDS011;12114;53.404;-1.502;2023-05-10T12:45:09;0.90;;;0.50;;
23866;SDS011;12114;53.404;-1.502;2023-05-10T12:47:53;0.98;;;0.40;;
23866;SDS011;12114;53.404;-1.502;2023-05-10T12:50:37;1.08;;;0.47;;
23866;SDS011;12114;53.404;-1.502;2023-05-10T12:53:21;1.02;;;0.38;;
23866;SDS011;12114;53.404;-1.502;2023-05-10T12:56:05;1.98;;;0.68;;
23866;SDS011;12114;53.404;-1.502;2023-05-10T12:58:50;1.40;;;0.65;;
23866;SDS011;12114;53.404;-1.502;2023-05-10T13:01:35;1.25;;;0.50;;
23866;SDS011;12114;53.404;-1.502;2023-05-10T13:04:20;0.82;;;0.52;;
23866;SDS011;12114;53.404;-1.502;2023-05-10T13:07:03;2.20;;;1.05;;
23866;SDS011;12114;53.404;-1.502;2023-05-10T13:09:47;2.35;;;0.60;;
23866;SDS011;12114;53.404;-1.502;2023-05-10T13:12:31;2.85;;;0.75;;
23866;SDS011;12114;53.404;-1.502;2023-05-10T13:15:15;1.75;;;0.80;;
23866;SDS011;12114;53.404;-1.502;2023-05-10T13:17:59;2.15;;;0.80;;
23866;SDS011;12114;53.404;-1.502;2023-05-10T13:20:44;2.30;;;0.80;;
23866;SDS011;12114;53.404;-1.502;2023-05-10T13:23:28;3.67;;;0.80;;
23866;SDS011;12114;53.404;-1.502;2023-05-10T13:26:12;2.45;;;0.90;;
23866;SDS011;12114;53.404;-1.502;2023-05-10T13:28:56;2.63;;;1.42;;
23866;SDS011;12114;53.404;-1.502;2023-05-10T13:31:40;2.05;;;0.70;;
23866;SDS011;12114;53.404;-1.502;2023-05-10T13:34:24;1.02;;;0.40;;
23866;SDS011;12114;53.404;-1.502;2023-05-10T13:37:08;1.63;;;0.60;;
23866;SDS011;12114;53.404;-1.502;2023-05-10T13:39:52;1.58;;;0.55;;
23866;SDS011;12114;53.404;-1.502;2023-05-10T13:42:36;0.85;;;0.50;;
23866;SDS011;12114;53.404;-1.502;2023-05-10T13:45:21;1.00;;;0.50;;
23866;SDS011;12114;53.404;-1.502;2023-05-10T13:48:05;1.92;;;0.60;;
23866;SDS011;12114;53.404;-1.502;2023-05-10T13:50:49;1.15;;;0.70;;
23866;SDS011;12114;53.404;-1.502;2023-05-10T13:53:33;1.27;;;0.52;;
23866;SDS011;12114;53.404;-1.502;2023-05-10T13:56:17;1.00;;;0.47;;
23866;SDS011;12114;53.404;-1.502;2023-05-10T13:59:01;3.55;;;0.60;;
23866;SDS011;12114;53.404;-1.502;2023-05-10T14:01:45;1.02;;;0.30;;
23866;SDS011;12114;53.404;-1.502;2023-05-10T14:04:29;3.03;;;0.43;;
23866;SDS011;12114;53.404;-1.502;2023-05-10T14:07:13;0.80;;;0.30;;
23866;SDS011;12114;53.404;-1.502;2023-05-10T14:09:57;0.22;;;0.20;;
23866;SDS011;12114;53.404;-1.502;2023-05-10T14:12:41;0.60;;;0.30;;
23866;SDS011;12114;53.404;-1.502;2023-05-10T14:15:25;1.88;;;0.30;;
23866;SDS011;12114;53.404;-1.502;2023-05-10T14:18:09;1.90;;;0.40;;
23866;SDS011;12114;53.404;-1.502;2023-05-10T14:20:53;0.55;;;0.32;;
23866;SDS011;12114;53.404;-1.502;2023-05-10T14:23:38;1.37;;;0.30;;
23866;SDS011;12114;53.404;-1.502;2023-05-10T14:26:23;0.98;;;0.30;;
23866;SDS011;12114;53.404;-1.502;2023-05-10T14:29:07;0.95;;;0.40;;
23866;SDS011;12114;53.404;-1.502;2023-05-10T14:31:51;1.00;;;0.70;;
23866;SDS011;12114;53.404;-1.502;2023-05-10T14:34:35;4.10;;;3.00;;
23866;SDS011;12114;53.404;-1.502;2023-05-10T14:37:19;1.05;;;0.40;;
23866;SDS011;12114;53.404;-1.502;2023-05-10T14:40:03;0.65;;;0.45;;
23866;SDS011;12114;53.404;-1.502;2023-05-10T14:42:47;1.35;;;0.55;;
23866;SDS011;12114;53.404;-1.502;2023-05-10T14:45:32;1.05;;;0.52;;
23866;SDS011;12114;53.404;-1.502;2023-05-10T14:48:16;3.28;;;0.70;;
23866;SDS011;12114;53.404;-1.502;2023-05-10T14:51:01;1.75;;;0.47;;
23866;SDS011;12114;53.404;-1.502;2023-05-10T14:53:45;2.40;;;0.57;;
23866;SDS011;12114;53.404;-1.502;2023-05-10T14:56:29;1.50;;;0.40;;
23866;SDS011;12114;53.404;-1.502;2023-05-10T14:59:13;1.23;;;0.40;;
23866;SDS011;12114;53.404;-1.502;2023-05-10T15:01:58;2.05;;;0.45;;
23866;SDS011;12114;53.404;-1.502;2023-05-10T15:04:43;1.85;;;0.30;;
23866;SDS011;12114;53.404;-1.502;2023-05-10T15:07:26;0.73;;;0.20;;
23866;SDS011;12114;53.404;-1.502;2023-05-10T15:10:10;0.82;;;0.20;;
23866;SDS011;12114;53.404;-1.502;2023-05-10T15:12:55;1.73;;;0.30;;
23866;SDS011;12114;53.404;-1.502;2023-05-10T15:15:39;1.65;;;0.20;;
23866;SDS011;12114;53.404;-1.502;2023-05-10T15:18:23;0.77;;;0.20;;
23866;SDS011;12114;53.404;-1.502;2023-05-10T15:21:07;0.35;;;0.10;;
23866;SDS011;12114;53.404;-1.502;2023-05-10T15:23:52;1.10;;;0.20;;
23866;SDS011;12114;53.404;-1.502;2023-05-10T15:26:36;0.95;;;0.30;;
23866;SDS011;12114;53.404;-1.502;2023-05-10T15:29:20;1.13;;;0.30;;
23866;SDS011;12114;53.404;-1.502;2023-05-10T15:32:04;0.75;;;0.30;;
23866;SDS011;12114;53.404;-1.502;2023-05-10T15:34:49;1.42;;;0.40;;
23866;SDS011;12114;53.404;-1.502;2023-05-10T15:37:32;2.05;;;0.32;;
23866;SDS011;12114;53.404;-1.502;2023-05-10T15:40:16;2.60;;;0.40;;
23866;SDS011;12114;53.404;-1.502;2023-05-10T15:43:00;0.65;;;0.38;;
23866;SDS011;12114;53.404;-1.502;2023-05-10T15:45:44;1.88;;;0.38;;
23866;SDS011;12114;53.404;-1.502;2023-05-10T15:48:28;0.60;;;0.30;;
23866;SDS011;12114;53.404;-1.502;2023-05-10T15:51:14;2.20;;;0.30;;
23866;SDS011;12114;53.404;-1.502;2023-05-10T15:53:58;1.38;;;0.38;;
23866;SDS011;12114;53.404;-1.502;2023-05-10T15:56:43;1.40;;;0.30;;
23866;SDS011;12114;53.404;-1.502;2023-05-10T15:59:27;1.92;;;0.35;;
23866;SDS011;12114;53.404;-1.502;2023-05-10T16:02:11;1.05;;;0.30;;
23866;SDS011;12114;53.404;-1.502;2023-05-10T16:04:55;3.58;;;0.32;;
23866;SDS011;12114;53.404;-1.502;2023-05-10T16:07:39;1.05;;;0.40;;
23866;SDS011;12114;53.404;-1.502;2023-05-10T16:10:24;0.50;;;0.30;;
23866;SDS011;12114;53.404;-1.502;2023-05-10T16:13:08;0.73;;;0.30;;
23866;SDS011;12114;53.404;-1.502;2023-05-10T16:15:52;0.65;;;0.25;;
23866;SDS011;12114;53.404;-1.502;2023-05-10T16:18:36;0.68;;;0.30;;
23866;SDS011;12114;53.404;-1.502;2023-05-10T16:21:20;2.42;;;0.30;;
23866;SDS011;12114;53.404;-1.502;2023-05-10T16:24:04;0.40;;;0.28;;
23866;SDS011;12114;53.404;-1.502;2023-05-10T16:26:48;2.22;;;0.63;;
23866;SDS011;12114;53.404;-1.502;2023-05-10T16:29:32;2.60;;;0.40;;
23866;SDS011;12114;53.404;-1.502;2023-05-10T16:32:16;2.03;;;0.30;;
23866;SDS011;12114;53.404;-1.502;2023-05-10T16:35:01;1.83;;;0.50;;
23866;SDS011;12114;53.404;-1.502;2023-05-10T16:37:45;1.45;;;0.40;;
23866;SDS011;12114;53.404;-1.502;2023-05-10T16:40:29;0.68;;;0.40;;
23866;SDS011;12114;53.404;-1.502;2023-05-10T16:43:13;1.33;;;0.30;;
23866;SDS011;12114;53.404;-1.502;2023-05-10T16:45:57;0.70;;;0.40;;
23866;SDS011;12114;53.404;-1.502;2023-05-10T16:48:41;4.13;;;0.70;;
23866;SDS011;12114;53.404;-1.502;2023-05-10T16:51:25;1.40;;;0.47;;
23866;SDS011;12114;53.404;-1.502;2023-05-10T16:54:09;2.88;;;0.40;;
23866;SDS011;12114;53.404;-1.502;2023-05-10T16:56:53;0.70;;;0.40;;
23866;SDS011;12114;53.404;-1.502;2023-05-10T16:59:37;1.38;;;0.30;;
23866;SDS011;12114;53.404;-1.502;2023-05-10T17:02:22;1.38;;;0.30;;